Time,TemperatureF,DewpointF,PressureIn,WindDirection,WindDirectionDegrees,WindSpeedMPH,WindSpeedGustMPH,Humidity,HourlyPrecipIn,Conditions,Clouds,dailyrainin,SoftwareType,DateUTC
2013-03-08 00:02:00,19.9,2.5,30.87,SE,135,6.0,6.0,46,0.00,,,0.00,meteohub,2013-03-08 07:02:00,
2013-03-08 00:07:00,20.5,3.0,30.87,South,180,7.0,7.0,46,0.00,,,0.00,meteohub,2013-03-08 07:07:00,
2013-03-08 00:12:00,21.0,3.6,30.87,South,180,2.0,8.0,46,0.00,,,0.00,meteohub,2013-03-08 07:12:00,
2013-03-08 00:17:00,20.8,2.8,30.87,NE,45,3.0,8.0,45,0.00,,,0.00,meteohub,2013-03-08 07:17:00,
2013-03-08 00:22:00,20.3,2.3,30.87,SW,225,6.0,8.0,45,0.00,,,0.00,meteohub,2013-03-08 07:22:00,
2013-03-08 00:27:00,20.7,2.7,30.87,South,180,4.0,7.0,45,0.00,,,0.00,meteohub,2013-03-08 07:27:00,
2013-03-08 00:32:00,21.4,2.8,30.87,SE,135,6.0,7.0,44,0.00,,,0.00,meteohub,2013-03-08 07:32:00,
2013-03-08 00:37:00,23.0,3.4,30.87,SE,135,5.0,9.0,42,0.00,,,0.00,meteohub,2013-03-08 07:37:00,
2013-03-08 00:42:00,23.4,3.2,30.87,SE,135,6.0,9.0,41,0.00,,,0.00,meteohub,2013-03-08 07:42:00,
2013-03-08 00:47:00,23.2,3.0,30.87,NW,315,4.0,9.0,41,0.00,,,0.00,meteohub,2013-03-08 07:47:00,
2013-03-08 00:52:00,21.4,1.4,30.86,NE,45,2.0,9.0,41,0.00,,,0.00,meteohub,2013-03-08 07:52:00,
2013-03-08 00:57:00,20.3,0.9,30.86,East,90,3.0,8.0,42,0.00,,,0.00,meteohub,2013-03-08 07:57:00,
2013-03-08 01:02:00,19.9,1.0,30.86,West,270,2.0,4.0,43,0.00,,,0.00,meteohub,2013-03-08 08:02:00,
2013-03-08 01:07:00,19.9,1.0,30.86,West,270,2.0,3.0,43,0.00,,,0.00,meteohub,2013-03-08 08:07:00,
2013-03-08 01:12:00,18.7,-1.7,30.86,NE,45,2.0,3.0,40,0.00,,,0.00,meteohub,2013-03-08 08:12:00,
2013-03-08 01:17:00,18.3,-1.5,30.85,East,90,3.0,3.0,41,0.00,,,0.00,meteohub,2013-03-08 08:17:00,
2013-03-08 01:22:00,19.0,-0.2,30.85,NE,45,2.0,7.0,42,0.00,,,0.00,meteohub,2013-03-08 08:22:00,
2013-03-08 01:27:00,18.7,-0.6,30.86,West,270,0.0,7.0,42,0.00,,,0.00,meteohub,2013-03-08 08:27:00,
2013-03-08 01:32:00,18.3,-0.9,30.85,NE,45,2.0,7.0,42,0.00,,,0.00,meteohub,2013-03-08 08:32:00,
2013-03-08 01:37:00,18.1,-1.1,30.85,NE,45,2.0,4.0,42,0.00,,,0.00,meteohub,2013-03-08 08:37:00,
2013-03-08 01:42:00,17.8,-1.5,30.85,East,90,2.0,2.0,42,0.00,,,0.00,meteohub,2013-03-08 08:42:00,
2013-03-08 01:47:00,17.6,-1.1,30.85,North,0,2.0,2.0,43,0.00,,,0.00,meteohub,2013-03-08 08:47:00,
2013-03-08 01:52:00,17.1,-1.1,30.85,NE,45,3.0,3.0,44,0.00,,,0.00,meteohub,2013-03-08 08:52:00,
2013-03-08 01:57:00,17.1,-0.6,30.85,East,90,4.0,4.0,45,0.00,,,0.00,meteohub,2013-03-08 08:57:00,
2013-03-08 02:02:00,17.2,-0.4,30.85,East,90,4.0,4.0,45,0.00,,,0.00,meteohub,2013-03-08 09:02:00,
2013-03-08 02:07:00,17.1,-0.6,30.84,South,180,2.0,4.0,45,0.00,,,0.00,meteohub,2013-03-08 09:07:00,
2013-03-08 02:12:00,16.7,-0.9,30.84,SE,135,2.0,4.0,45,0.00,,,0.00,meteohub,2013-03-08 09:12:00,
2013-03-08 02:17:00,16.3,-1.3,30.84,SW,225,2.0,4.0,45,0.00,,,0.00,meteohub,2013-03-08 09:17:00,
2013-03-08 02:22:00,16.2,-1.5,30.84,South,180,2.0,4.0,45,0.00,,,0.00,meteohub,2013-03-08 09:22:00,
2013-03-08 02:27:00,16.2,-1.5,30.84,South,180,4.0,4.0,45,0.00,,,0.00,meteohub,2013-03-08 09:27:00,
2013-03-08 02:32:00,16.3,-0.8,30.83,South,180,2.0,5.0,46,0.00,,,0.00,meteohub,2013-03-08 09:32:00,
2013-03-08 02:37:00,16.0,-1.7,30.83,North,0,2.0,5.0,45,0.00,,,0.00,meteohub,2013-03-08 09:37:00,
2013-03-08 02:42:00,16.2,-0.9,30.83,NW,315,1.0,5.0,46,0.00,,,0.00,meteohub,2013-03-08 09:42:00,
2013-03-08 02:47:00,16.3,-0.8,30.83,North,0,2.0,5.0,46,0.00,,,0.00,meteohub,2013-03-08 09:47:00,
2013-03-08 02:52:00,16.3,-0.8,30.82,SE,135,3.0,5.0,46,0.00,,,0.00,meteohub,2013-03-08 09:52:00,
2013-03-08 02:57:00,16.9,0.1,30.82,SE,135,2.0,4.0,47,0.00,,,0.00,meteohub,2013-03-08 09:57:00,
2013-03-08 03:02:00,16.7,-0.6,30.82,SE,135,3.0,4.0,46,0.00,,,0.00,meteohub,2013-03-08 10:02:00,
2013-03-08 03:07:00,16.7,-0.6,30.82,SE,135,3.0,4.0,46,0.00,,,0.00,meteohub,2013-03-08 10:07:00,
2013-03-08 03:12:00,16.5,-0.6,30.82,North,0,2.0,4.0,46,0.00,,,0.00,meteohub,2013-03-08 10:12:00,
2013-03-08 03:17:00,16.5,-0.2,30.82,NE,45,1.0,3.0,47,0.00,,,0.00,meteohub,2013-03-08 10:17:00,
2013-03-08 03:22:00,16.2,-0.6,30.82,NE,45,2.0,3.0,47,0.00,,,0.00,meteohub,2013-03-08 10:22:00,
2013-03-08 03:27:00,16.0,-0.8,30.82,North,0,3.0,3.0,47,0.00,,,0.00,meteohub,2013-03-08 10:27:00,
2013-03-08 03:32:00,15.8,-0.4,30.82,North,0,2.0,4.0,48,0.00,,,0.00,meteohub,2013-03-08 10:32:00,
2013-03-08 03:37:00,15.8,-0.4,30.82,NE,45,0.0,4.0,48,0.00,,,0.00,meteohub,2013-03-08 10:37:00,
2013-03-08 03:42:00,16.0,-0.2,30.82,NE,45,0.0,4.0,48,0.00,,,0.00,meteohub,2013-03-08 10:42:00,
2013-03-08 03:47:00,16.2,0.0,30.82,NW,315,2.0,3.0,48,0.00,,,0.00,meteohub,2013-03-08 10:47:00,
2013-03-08 03:52:00,16.0,0.1,30.82,NE,45,2.0,3.0,49,0.00,,,0.00,meteohub,2013-03-08 10:52:00,
2013-03-08 03:57:00,15.8,0.0,30.82,NE,45,2.0,3.0,49,0.00,,,0.00,meteohub,2013-03-08 10:57:00,
2013-03-08 04:02:00,16.0,0.1,30.82,NE,45,0.0,3.0,49,0.00,,,0.00,meteohub,2013-03-08 11:02:00,
2013-03-08 04:07:00,15.8,0.0,30.82,East,90,2.0,3.0,49,0.00,,,0.00,meteohub,2013-03-08 11:07:00,
2013-03-08 04:12:00,15.8,0.0,30.82,South,180,0.0,3.0,49,0.00,,,0.00,meteohub,2013-03-08 11:12:00,
2013-03-08 04:17:00,15.8,0.0,30.82,East,90,2.0,3.0,49,0.00,,,0.00,meteohub,2013-03-08 11:17:00,
2013-03-08 04:22:00,16.0,0.1,30.82,East,90,3.0,3.0,49,0.00,,,0.00,meteohub,2013-03-08 11:22:00,
2013-03-08 04:27:00,16.2,0.3,30.82,NE,45,3.0,4.0,49,0.00,,,0.00,meteohub,2013-03-08 11:27:00,
2013-03-08 04:32:00,16.2,0.3,30.82,NE,45,4.0,4.0,49,0.00,,,0.00,meteohub,2013-03-08 11:32:00,
2013-03-08 04:37:00,16.2,0.9,30.82,NE,45,2.0,4.0,50,0.00,,,0.00,meteohub,2013-03-08 11:37:00,
2013-03-08 04:42:00,16.2,0.3,30.82,NE,45,2.0,4.0,49,0.00,,,0.00,meteohub,2013-03-08 11:42:00,
2013-03-08 04:47:00,16.0,0.1,30.82,SE,135,2.0,5.0,49,0.00,,,0.00,meteohub,2013-03-08 11:47:00,
2013-03-08 04:52:00,15.6,0.3,30.82,NW,315,2.0,5.0,50,0.00,,,0.00,meteohub,2013-03-08 11:52:00,
2013-03-08 04:57:00,15.8,0.0,30.82,NE,45,3.0,4.0,49,0.00,,,0.00,meteohub,2013-03-08 11:57:00,
2013-03-08 05:02:00,15.8,0.5,30.82,NE,45,2.0,4.0,50,0.00,,,0.00,meteohub,2013-03-08 12:02:00,
2013-03-08 05:07:00,15.8,0.5,30.82,NE,45,2.0,4.0,50,0.00,,,0.00,meteohub,2013-03-08 12:07:00,
2013-03-08 05:12:00,16.0,0.7,30.82,North,0,3.0,4.0,50,0.00,,,0.00,meteohub,2013-03-08 12:12:00,
2013-03-08 05:17:00,16.0,0.7,30.83,NE,45,2.0,4.0,50,0.00,,,0.00,meteohub,2013-03-08 12:17:00,
2013-03-08 05:22:00,16.3,1.0,30.82,NE,45,1.0,4.0,50,0.00,,,0.00,meteohub,2013-03-08 12:22:00,
2013-03-08 05:27:00,16.3,1.0,30.82,North,0,0.0,4.0,50,0.00,,,0.00,meteohub,2013-03-08 12:27:00,
2013-03-08 05:32:00,16.5,1.0,30.83,North,0,0.0,3.0,50,0.00,,,0.00,meteohub,2013-03-08 12:32:00,
2013-03-08 05:37:00,16.5,1.0,30.82,NE,45,2.0,3.0,50,0.00,,,0.00,meteohub,2013-03-08 12:37:00,
2013-03-08 05:42:00,16.7,1.2,30.82,NE,45,2.0,3.0,50,0.00,,,0.00,meteohub,2013-03-08 12:42:00,
2013-03-08 05:47:00,16.7,1.2,30.82,NE,45,1.0,3.0,50,0.00,,,0.00,meteohub,2013-03-08 12:47:00,
2013-03-08 05:52:00,17.1,1.6,30.82,NE,45,1.0,3.0,50,0.00,,,0.00,meteohub,2013-03-08 12:52:00,
2013-03-08 05:57:00,16.9,1.4,30.82,North,0,0.0,3.0,50,0.00,,,0.00,meteohub,2013-03-08 12:57:00,
2013-03-08 06:02:00,16.7,1.2,30.82,East,90,3.0,3.0,50,0.00,,,0.00,meteohub,2013-03-08 13:02:00,
2013-03-08 06:07:00,16.3,1.0,30.82,East,90,2.0,4.0,50,0.00,,,0.00,meteohub,2013-03-08 13:07:00,
2013-03-08 06:12:00,16.0,0.7,30.82,East,90,1.0,4.0,50,0.00,,,0.00,meteohub,2013-03-08 13:12:00,
2013-03-08 06:17:00,16.0,0.7,30.82,East,90,0.0,4.0,50,0.00,,,0.00,meteohub,2013-03-08 13:17:00,
2013-03-08 06:22:00,16.0,0.7,30.82,NE,45,2.0,3.0,50,0.00,,,0.00,meteohub,2013-03-08 13:22:00,
2013-03-08 06:27:00,16.0,1.0,30.82,NE,45,1.0,2.0,51,0.00,,,0.00,meteohub,2013-03-08 13:27:00,
2013-03-08 06:32:00,15.8,0.9,30.82,East,90,1.0,2.0,51,0.00,,,0.00,meteohub,2013-03-08 13:32:00,
2013-03-08 06:37:00,15.8,0.9,30.82,NE,45,3.0,3.0,51,0.00,,,0.00,meteohub,2013-03-08 13:37:00,
2013-03-08 06:42:00,15.8,0.9,30.82,NE,45,3.0,3.0,51,0.00,,,0.00,meteohub,2013-03-08 13:42:00,
2013-03-08 06:47:00,15.8,1.2,30.82,North,0,2.0,4.0,52,0.00,,,0.00,meteohub,2013-03-08 13:47:00,
2013-03-08 06:52:00,16.2,1.6,30.82,North,0,1.0,4.0,52,0.00,,,0.00,meteohub,2013-03-08 13:52:00,
2013-03-08 06:57:00,16.5,1.9,30.82,West,270,2.0,4.0,52,0.00,,,0.00,meteohub,2013-03-08 13:57:00,
2013-03-08 07:02:00,16.7,2.1,30.82,NE,45,2.0,2.0,52,0.00,,,0.00,meteohub,2013-03-08 14:02:00,
2013-03-08 07:07:00,17.1,2.1,30.82,South,180,1.0,2.0,51,0.00,,,0.00,meteohub,2013-03-08 14:07:00,
2013-03-08 07:12:00,17.2,2.3,30.82,South,180,0.0,2.0,51,0.00,,,0.00,meteohub,2013-03-08 14:12:00,
2013-03-08 07:17:00,17.4,2.3,30.82,SE,135,2.0,2.0,51,0.00,,,0.00,meteohub,2013-03-08 14:17:00,
2013-03-08 07:22:00,17.6,2.1,30.82,South,180,2.0,2.0,50,0.00,,,0.00,meteohub,2013-03-08 14:22:00,
2013-03-08 07:27:00,17.8,2.3,30.82,South,180,3.0,3.0,50,0.00,,,0.00,meteohub,2013-03-08 14:27:00,
2013-03-08 07:32:00,17.8,1.9,30.82,SE,135,3.0,3.0,49,0.00,,,0.00,meteohub,2013-03-08 14:32:00,
2013-03-08 07:37:00,17.8,1.9,30.81,South,180,2.0,3.0,49,0.00,,,0.00,meteohub,2013-03-08 14:37:00,
2013-03-08 07:42:00,18.0,2.5,30.81,SE,135,3.0,4.0,50,0.00,,,0.00,meteohub,2013-03-08 14:42:00,
2013-03-08 07:47:00,18.1,2.7,30.81,South,180,2.0,4.0,50,0.00,,,0.00,meteohub,2013-03-08 14:47:00,
2013-03-08 07:52:00,18.5,3.0,30.81,SW,225,2.0,4.0,50,0.00,,,0.00,meteohub,2013-03-08 14:52:00,
2013-03-08 07:57:00,18.9,3.4,30.81,NE,45,4.0,4.0,50,0.00,,,0.00,meteohub,2013-03-08 14:57:00,
2013-03-08 08:03:00,19.6,5.7,30.81,North,0,2.0,7.0,54,0.00,,,0.00,meteohub,2013-03-08 15:03:00,
2013-03-08 08:08:00,20.7,6.6,30.81,SW,225,1.0,7.0,54,0.00,,,0.00,meteohub,2013-03-08 15:08:00,
2013-03-08 08:13:00,21.9,7.3,30.80,SW,225,1.0,7.0,53,0.00,,,0.00,meteohub,2013-03-08 15:13:00,
2013-03-08 08:18:00,23.5,8.4,30.80,South,180,9.0,9.0,52,0.00,,,0.00,meteohub,2013-03-08 15:18:00,
2013-03-08 08:23:00,24.8,8.8,30.80,South,180,4.0,9.0,50,0.00,,,0.00,meteohub,2013-03-08 15:23:00,
2013-03-08 08:28:00,25.5,9.0,30.80,South,180,8.0,9.0,49,0.00,,,0.00,meteohub,2013-03-08 15:28:00,
2013-03-08 08:33:00,26.2,9.1,30.80,SE,135,5.0,9.0,48,0.00,,,0.00,meteohub,2013-03-08 15:33:00,
2013-03-08 08:38:00,26.8,8.8,30.80,SSE,158,4.0,8.0,46,0.00,,,0.00,meteohub,2013-03-08 15:38:00,
2013-03-08 08:43:00,27.3,8.8,30.80,South,180,6.0,8.0,45,0.00,,,0.00,meteohub,2013-03-08 15:43:00,
2013-03-08 08:48:00,28.2,9.7,30.79,SE,135,5.0,8.0,45,0.00,,,0.00,meteohub,2013-03-08 15:48:00,
2013-03-08 08:53:00,28.9,11.7,30.79,South,180,5.0,8.0,48,0.00,,,0.00,meteohub,2013-03-08 15:53:00,
2013-03-08 08:58:00,29.5,11.7,30.79,South,180,4.0,8.0,47,0.00,,,0.00,meteohub,2013-03-08 15:58:00,
2013-03-08 09:03:00,29.7,11.8,30.79,SW,225,4.0,8.0,47,0.00,,,0.00,meteohub,2013-03-08 16:03:00,
2013-03-08 09:08:00,30.2,11.5,30.79,West,270,2.0,6.0,45,0.00,,,0.00,meteohub,2013-03-08 16:08:00,
2013-03-08 09:13:00,30.7,11.8,30.78,West,270,2.0,6.0,45,0.00,,,0.00,meteohub,2013-03-08 16:13:00,
2013-03-08 09:18:00,30.4,11.1,30.79,North,0,2.0,4.0,44,0.00,,,0.00,meteohub,2013-03-08 16:18:00,
2013-03-08 09:23:00,30.2,10.9,30.78,SE,135,1.0,4.0,44,0.00,,,0.00,meteohub,2013-03-08 16:23:00,
2013-03-08 09:28:00,30.6,11.7,30.78,SE,135,2.0,3.0,45,0.00,,,0.00,meteohub,2013-03-08 16:28:00,
2013-03-08 09:33:00,31.3,12.4,30.77,SE,135,0.0,2.0,45,0.00,,,0.00,meteohub,2013-03-08 16:33:00,
2013-03-08 09:38:00,32.2,12.7,30.78,SE,135,1.0,2.0,44,0.00,,,0.00,meteohub,2013-03-08 16:38:00,
2013-03-08 09:43:00,33.1,13.5,30.77,SE,135,2.0,2.0,44,0.00,,,0.00,meteohub,2013-03-08 16:43:00,
2013-03-08 09:48:00,33.8,13.1,30.77,SE,135,1.0,2.0,42,0.00,,,0.00,meteohub,2013-03-08 16:48:00,
2013-03-08 09:53:00,35.1,14.4,30.77,South,180,2.0,2.0,42,0.00,,,0.00,meteohub,2013-03-08 16:53:00,
2013-03-08 09:58:00,36.9,15.4,30.77,South,180,2.0,2.0,41,0.00,,,0.00,meteohub,2013-03-08 16:58:00,
2013-03-08 10:03:00,37.9,18.0,30.77,South,180,2.0,2.0,44,0.00,,,0.00,meteohub,2013-03-08 17:03:00,
2013-03-08 10:08:00,39.9,19.2,30.76,South,180,2.0,2.0,43,0.00,,,0.00,meteohub,2013-03-08 17:08:00,
2013-03-08 10:13:00,41.4,19.4,30.76,South,180,4.0,4.0,41,0.00,,,0.00,meteohub,2013-03-08 17:13:00,
2013-03-08 10:19:00,41.9,19.4,30.75,West,270,4.0,4.0,40,0.00,,,0.00,meteohub,2013-03-08 17:19:00,
2013-03-08 10:24:00,42.1,17.6,30.75,South,180,4.0,6.0,37,0.00,,,0.00,meteohub,2013-03-08 17:24:00,
2013-03-08 10:29:00,42.3,17.2,30.74,South,180,2.0,6.0,36,0.00,,,0.00,meteohub,2013-03-08 17:29:00,
2013-03-08 10:34:00,42.8,17.6,30.74,South,180,4.0,7.0,36,0.00,,,0.00,meteohub,2013-03-08 17:34:00,
2013-03-08 10:39:00,43.9,18.7,30.74,South,180,4.0,7.0,36,0.00,,,0.00,meteohub,2013-03-08 17:39:00,
2013-03-08 10:44:00,44.8,18.1,30.74,South,180,4.0,7.0,34,0.00,,,0.00,meteohub,2013-03-08 17:44:00,
2013-03-08 10:49:00,45.7,18.1,30.74,South,180,2.0,5.0,33,0.00,,,0.00,meteohub,2013-03-08 17:49:00,
2013-03-08 10:54:00,46.9,18.7,30.74,South,180,2.0,4.0,32,0.00,,,0.00,meteohub,2013-03-08 17:54:00,
2013-03-08 10:59:00,48.2,19.0,30.73,SW,225,4.0,4.0,31,0.00,,,0.00,meteohub,2013-03-08 17:59:00,
2013-03-08 11:04:00,48.2,19.0,30.73,SW,225,4.0,4.0,31,0.00,,,0.00,meteohub,2013-03-08 18:04:00,
2013-03-08 11:09:00,47.5,16.9,30.72,South,180,8.0,8.0,29,0.00,,,0.00,meteohub,2013-03-08 18:09:00,
2013-03-08 11:14:00,47.8,17.1,30.72,South,180,10.0,11.0,29,0.00,,,0.00,meteohub,2013-03-08 18:14:00,
2013-03-08 11:19:00,48.0,15.6,30.72,South,180,13.0,13.0,27,0.00,,,0.00,meteohub,2013-03-08 18:19:00,
2013-03-08 11:24:00,47.8,15.4,30.72,South,180,11.0,13.0,27,0.00,,,0.00,meteohub,2013-03-08 18:24:00,
2013-03-08 11:29:00,48.0,15.6,30.71,South,180,11.0,16.0,27,0.00,,,0.00,meteohub,2013-03-08 18:29:00,
2013-03-08 11:34:00,47.5,14.4,30.71,South,180,8.0,16.0,26,0.00,,,0.00,meteohub,2013-03-08 18:34:00,
2013-03-08 11:39:00,47.8,14.5,30.71,South,180,8.0,15.0,26,0.00,,,0.00,meteohub,2013-03-08 18:39:00,
2013-03-08 11:44:00,48.2,15.8,30.71,SW,225,17.0,17.0,27,0.00,,,0.00,meteohub,2013-03-08 18:44:00,
2013-03-08 11:49:00,47.1,14.0,30.70,South,180,11.0,14.0,26,0.00,,,0.00,meteohub,2013-03-08 18:49:00,
2013-03-08 11:54:00,46.6,13.5,30.70,South,180,9.0,17.0,26,0.00,,,0.00,meteohub,2013-03-08 18:54:00,
2013-03-08 12:00:00,46.0,11.3,30.70,SSW,203,11.0,17.0,24,0.00,,,0.00,meteohub,2013-03-08 19:00:00,
2013-03-08 12:05:00,45.9,12.0,30.70,South,180,11.0,17.0,25,0.00,,,0.00,meteohub,2013-03-08 19:05:00,
2013-03-08 12:10:00,47.1,15.6,30.69,South,180,11.0,15.0,28,0.00,,,0.00,meteohub,2013-03-08 19:10:00,
2013-03-08 12:15:00,47.1,14.9,30.69,South,180,9.0,15.0,27,0.00,,,0.00,meteohub,2013-03-08 19:15:00,
2013-03-08 12:20:00,47.3,15.1,30.69,South,180,13.0,15.0,27,0.00,,,0.00,meteohub,2013-03-08 19:20:00,
2013-03-08 12:25:00,47.5,15.1,30.69,South,180,13.0,15.0,27,0.00,,,0.00,meteohub,2013-03-08 19:25:00,
2013-03-08 12:30:00,47.3,15.1,30.69,SSW,203,11.0,17.0,27,0.00,,,0.00,meteohub,2013-03-08 19:30:00,
2013-03-08 12:35:00,47.3,15.1,30.69,SSE,158,8.0,18.0,27,0.00,,,0.00,meteohub,2013-03-08 19:35:00,
2013-03-08 12:40:00,48.2,14.9,30.68,South,180,15.0,18.0,26,0.00,,,0.00,meteohub,2013-03-08 19:40:00,
2013-03-08 12:45:00,47.3,15.1,30.68,South,180,8.0,18.0,27,0.00,,,0.00,meteohub,2013-03-08 19:45:00,
2013-03-08 12:50:00,46.9,14.7,30.68,SSW,203,10.0,15.0,27,0.00,,,0.00,meteohub,2013-03-08 19:50:00,
2013-03-08 12:55:00,46.2,11.5,30.68,South,180,8.0,15.0,24,0.00,,,0.00,meteohub,2013-03-08 19:55:00,
2013-03-08 13:00:00,45.9,12.0,30.67,South,180,11.0,13.0,25,0.00,,,0.00,meteohub,2013-03-08 20:00:00,
2013-03-08 13:05:00,45.9,12.0,30.67,South,180,11.0,13.0,25,0.00,,,0.00,meteohub,2013-03-08 20:05:00,
2013-03-08 13:10:00,45.7,13.6,30.67,South,180,6.0,13.0,27,0.00,,,0.00,meteohub,2013-03-08 20:10:00,
2013-03-08 13:15:00,45.7,14.4,30.67,SE,135,6.0,12.0,28,0.00,,,0.00,meteohub,2013-03-08 20:15:00,
2013-03-08 13:20:00,45.5,13.5,30.66,South,180,14.0,14.0,27,0.00,,,0.00,meteohub,2013-03-08 20:20:00,
2013-03-08 13:25:00,45.1,14.0,30.66,South,180,10.0,14.0,28,0.00,,,0.00,meteohub,2013-03-08 20:25:00,
2013-03-08 13:30:00,44.6,13.5,30.66,South,180,9.0,14.0,28,0.00,,,0.00,meteohub,2013-03-08 20:30:00,
2013-03-08 13:35:00,44.1,13.8,30.66,South,180,11.0,14.0,29,0.00,,,0.00,meteohub,2013-03-08 20:35:00,
2013-03-08 13:40:00,43.7,14.4,30.66,SW,225,13.0,15.0,30,0.00,,,0.00,meteohub,2013-03-08 20:40:00,
2013-03-08 13:45:00,43.3,14.7,30.66,SSW,203,9.0,15.0,31,0.00,,,0.00,meteohub,2013-03-08 20:45:00,
2013-03-08 13:50:00,43.2,15.3,30.66,South,180,11.0,15.0,32,0.00,,,0.00,meteohub,2013-03-08 20:50:00,
2013-03-08 13:55:00,43.2,15.3,30.66,South,180,10.0,15.0,32,0.00,,,0.00,meteohub,2013-03-08 20:55:00,
2013-03-08 14:00:00,43.3,15.4,30.66,SW,225,13.0,17.0,32,0.00,,,0.00,meteohub,2013-03-08 21:00:00,
2013-03-08 14:05:00,43.3,16.9,30.66,SW,225,9.0,17.0,34,0.00,,,0.00,meteohub,2013-03-08 21:05:00,
2013-03-08 14:10:00,43.7,16.5,30.66,South,180,10.0,17.0,33,0.00,,,0.00,meteohub,2013-03-08 21:10:00,
2013-03-08 14:15:00,44.1,16.7,30.66,South,180,8.0,14.0,33,0.00,,,0.00,meteohub,2013-03-08 21:15:00,
2013-03-08 14:20:00,44.4,17.8,30.66,South,180,9.0,14.0,34,0.00,,,0.00,meteohub,2013-03-08 21:20:00,
2013-03-08 14:25:00,44.2,19.0,30.66,South,180,16.0,16.0,36,0.00,,,0.00,meteohub,2013-03-08 21:25:00,
2013-03-08 14:30:00,43.5,19.0,30.66,South,180,14.0,16.0,37,0.00,,,0.00,meteohub,2013-03-08 21:30:00,
2013-03-08 14:35:00,43.3,20.1,30.66,SSW,203,15.0,17.0,39,0.00,,,0.00,meteohub,2013-03-08 21:35:00,
2013-03-08 14:40:00,43.3,20.1,30.66,South,180,15.0,17.0,39,0.00,,,0.00,meteohub,2013-03-08 21:40:00,
2013-03-08 14:45:00,43.0,19.8,30.66,South,180,16.0,17.0,39,0.00,,,0.00,meteohub,2013-03-08 21:45:00,
2013-03-08 14:50:00,42.1,20.7,30.66,South,180,11.0,18.0,42,0.00,,,0.00,meteohub,2013-03-08 21:50:00,
2013-03-08 14:56:00,41.7,20.3,30.66,South,180,11.0,18.0,42,0.00,,,0.00,meteohub,2013-03-08 21:56:00,
2013-03-08 15:01:00,42.1,21.2,30.66,SSW,203,17.0,17.0,43,0.00,,,0.00,meteohub,2013-03-08 22:01:00,
2013-03-08 15:06:00,42.1,21.2,30.65,SSW,203,17.0,17.0,43,0.00,,,0.00,meteohub,2013-03-08 22:06:00,
2013-03-08 15:11:00,41.9,21.0,30.65,SW,225,9.0,17.0,43,0.00,,,0.00,meteohub,2013-03-08 22:11:00,
2013-03-08 15:16:00,41.9,20.5,30.66,South,180,11.0,17.0,42,0.00,,,0.00,meteohub,2013-03-08 22:16:00,
2013-03-08 15:21:00,41.7,20.3,30.65,SW,225,9.0,17.0,42,0.00,,,0.00,meteohub,2013-03-08 22:21:00,
2013-03-08 15:26:00,41.5,20.1,30.65,South,180,8.0,12.0,42,0.00,,,0.00,meteohub,2013-03-08 22:26:00,
2013-03-08 15:31:00,41.4,19.9,30.65,South,180,8.0,12.0,42,0.00,,,0.00,meteohub,2013-03-08 22:31:00,
2013-03-08 15:36:00,41.2,20.3,30.65,South,180,4.0,11.0,43,0.00,,,0.00,meteohub,2013-03-08 22:36:00,
2013-03-08 15:41:00,41.0,20.8,30.64,South,180,6.0,8.0,44,0.00,,,0.00,meteohub,2013-03-08 22:41:00,
2013-03-08 15:46:00,40.8,21.2,30.65,South,180,6.0,8.0,45,0.00,,,0.00,meteohub,2013-03-08 22:46:00,
2013-03-08 15:51:00,40.6,21.0,30.65,SW,225,7.0,11.0,45,0.00,,,0.00,meteohub,2013-03-08 22:51:00,
2013-03-08 15:56:00,40.6,21.0,30.65,South,180,9.0,11.0,45,0.00,,,0.00,meteohub,2013-03-08 22:56:00,
2013-03-08 16:01:00,40.5,20.8,30.65,SE,135,11.0,11.0,45,0.00,,,0.00,meteohub,2013-03-08 23:01:00,
2013-03-08 16:06:00,40.1,21.0,30.65,South,180,15.0,19.0,46,0.00,,,0.00,meteohub,2013-03-08 23:06:00,
2013-03-08 16:11:00,39.6,21.0,30.65,South,180,8.0,19.0,47,0.00,,,0.00,meteohub,2013-03-08 23:11:00,
2013-03-08 16:16:00,39.4,21.7,30.65,SE,135,7.0,19.0,49,0.00,,,0.00,meteohub,2013-03-08 23:16:00,
2013-03-08 16:21:00,39.4,21.7,30.65,South,180,7.0,15.0,49,0.00,,,0.00,meteohub,2013-03-08 23:21:00,
2013-03-08 16:26:00,39.4,22.3,30.64,South,180,6.0,11.0,50,0.00,,,0.00,meteohub,2013-03-08 23:26:00,
2013-03-08 16:31:00,39.6,22.5,30.64,South,180,7.0,8.0,50,0.00,,,0.00,meteohub,2013-03-08 23:31:00,
2013-03-08 16:36:00,39.6,22.5,30.64,South,180,5.0,7.0,50,0.00,,,0.00,meteohub,2013-03-08 23:36:00,
2013-03-08 16:41:00,39.4,22.3,30.64,SE,135,4.0,7.0,50,0.00,,,0.00,meteohub,2013-03-08 23:41:00,
2013-03-08 16:46:00,39.4,21.4,30.64,SSE,158,5.0,8.0,48,0.00,,,0.00,meteohub,2013-03-08 23:46:00,
2013-03-08 16:51:00,39.0,21.9,30.64,South,180,7.0,8.0,50,0.00,,,0.00,meteohub,2013-03-08 23:51:00,
2013-03-08 16:56:00,38.8,21.4,30.63,South,180,12.0,12.0,49,0.00,,,0.00,meteohub,2013-03-08 23:56:00,
2013-03-08 17:01:00,38.8,21.7,30.63,South,180,10.0,12.0,50,0.00,,,0.00,meteohub,2013-03-09 00:01:00,
2013-03-08 17:06:00,38.8,21.7,30.63,South,180,10.0,12.0,50,0.00,,,0.00,meteohub,2013-03-09 00:06:00,
2013-03-08 17:11:00,38.5,21.9,30.63,South,180,4.0,12.0,51,0.00,,,0.00,meteohub,2013-03-09 00:11:00,
2013-03-08 17:16:00,38.1,21.6,30.63,South,180,10.0,10.0,51,0.00,,,0.00,meteohub,2013-03-09 00:16:00,
2013-03-08 17:21:00,38.1,21.6,30.63,South,180,8.0,12.0,51,0.00,,,0.00,meteohub,2013-03-09 00:21:00,
2013-03-08 17:26:00,37.9,21.4,30.63,South,180,7.0,12.0,51,0.00,,,0.00,meteohub,2013-03-09 00:26:00,